Weather at Heck Field Airport

Public forecast

Using degrees Celsius for public forecast. Weather courtesy of forecast.io.

Closest aviation weather report (METAR) to Heck Field Airport

Closest report is Gold Coast Airport, 25.5 nm (47.3 km) SSE.

2023/01/30 01:00 (retrieved 18 minutes ago)

YBCG 300100Z AUTO 02013KT 9999 // ////// 29/23 Q1011 RF000/0000

Closest aviation forecast (TAF) to Heck Field Airport

Forecast is more than 12 hours old.

Closest forecast is Toowoomba Wellcamp Airport, 83.2 nm (154.0 km) W.

2023/01/29 12:00 Ammendment (retrieved 13 hours ago)

TAF AMD YBWW 291046Z 2912/3012 04006KT CAVOK FM292200 34010KT CAVOK FM300600 08012KT CAVOK PROB30 TEMPO 3004/3010 VRB20G40KT 2000 TSRA SCT020 SCT070CB